Flight Track Log - Related Links

Times and Time Zones

All times are in EDT time to prevent confusion due to time zone crossing. See the N373LD flight status page for this flight to view local times or setup timezone preferences in your user account.

Time Position Orientation Groundspeed Altitude Reporting Facility
EDT Latitude Longitude Course Direction KTS MPH feet Rate Location/Type
Mon 04:20:16 PM 46.3039 -106.1233 223° Southwest 150 173 10,700  Level Salt Lake Center
Mon 04:21:17 PM 46.2708 -106.1819 231° Southwest 152 175 12,400 1,463 Climbing Salt Lake Center
Mon 04:22:19 PM 46.2425 -106.2356 233° Southwest 162 186 13,700 1,317 Climbing Salt Lake Center
Mon 04:23:00 PM 46.1752 -106.2914 229° Southwest  Level FlightAware Approximate
Mon 04:23:20 PM 46.2122 -106.2878 230° Southwest 166 191 15,100  Level Salt Lake Center
Mon 04:24:00 PM 46.1359 -106.3616 234° Southwest  Level FlightAware Approximate
Mon 04:24:22 PM 46.1817 -106.3364 228° Southwest 165 190 16,500  Level Salt Lake Center
Mon 04:25:23 PM 46.1503 -106.3911 230° Southwest 171 197 17,700 1,073 Climbing Salt Lake Center
Mon 04:26:25 PM 46.1164 -106.4494 230° Southwest 183 211 18,700 1,024 Climbing Salt Lake Center
Mon 04:27:26 PM 46.0803 -106.5089 229° Southwest 192 221 19,800 1,171 Climbing Salt Lake Center
Mon 04:28:28 PM 46.0431 -106.5722 230° Southwest 202 232 21,100 1,073 Climbing Salt Lake Center
Mon 04:29:29 PM 45.9969 -106.6508 230° Southwest 209 241 22,000 439 Climbing Salt Lake Center
Mon 04:30:31 PM 45.9519 -106.7258 229° Southwest 239 275 22,000  Level Salt Lake Center
Mon 04:31:32 PM 45.9056 -106.8081 231° Southwest 258 297 22,000  Level Salt Lake Center
Mon 04:32:34 PM 45.8564 -106.8872 228° Southwest 260 299 22,000  Level Salt Lake Center
Mon 04:33:36 PM 45.8078 -106.9683 229° Southwest 264 304 22,000  Level Salt Lake Center
Mon 04:34:37 PM 45.7589 -107.0494 229° Southwest 265 305 22,000  Level Salt Lake Center
Mon 04:35:39 PM 45.7092 -107.1275 228° Southwest 266 306 22,000  Level Salt Lake Center
Mon 04:36:40 PM 45.6494 -107.2281 230° Southwest 275 316 22,000  Level Salt Lake Center
Mon 04:37:42 PM 45.6000 -107.3100 229° Southwest 275 316 22,000  Level Salt Lake Center
Mon 04:38:44 PM 45.5503 -107.3903 229° Southwest 273 314 22,000  Level Salt Lake Center
Mon 04:39:45 PM 45.5006 -107.4731 229° Southwest 275 316 22,000  Level Salt Lake Center
Mon 04:40:47 PM 45.4500 -107.5539 228° Southwest 275 316 22,000  Level Salt Lake Center
Mon 04:41:48 PM 45.3997 -107.6364 229° Southwest 276 318 22,000  Level Salt Lake Center
Mon 04:42:50 PM 45.3494 -107.7164 228° Southwest 275 316 22,000  Level Salt Lake Center
Mon 04:43:52 PM 45.2892 -107.8136 229° Southwest 274 315 22,000  Level Salt Lake Center
Mon 04:44:53 PM 45.2386 -107.8939 228° Southwest 274 315 22,000  Level Salt Lake Center
Mon 04:45:55 PM 45.1892 -107.9744 229° Southwest 274 315 22,000  Level Salt Lake Center
Mon 04:46:56 PM 45.1394 -108.0544 229° Southwest 273 314 22,000  Level Salt Lake Center
Mon 04:47:58 PM 45.0894 -108.1333 228° Southwest 273 314 22,000  Level Salt Lake Center
Mon 04:48:59 PM 45.0417 -108.2131 230° Southwest 270 311 22,000  Level Salt Lake Center
Mon 04:50:01 PM 44.9914 -108.2925 228° Southwest 270 311 22,000  Level Salt Lake Center
Mon 04:51:03 PM 44.9325 -108.3853 228° Southwest 270 311 22,000  Level Salt Lake Center
Mon 04:52:04 PM 44.8833 -108.4631 228° Southwest 270 311 22,000  Level Salt Lake Center
Mon 04:53:06 PM 44.8325 -108.5425 228° Southwest 270 311 22,000 -927 Level Salt Lake Center
Mon 04:54:07 PM 44.7819 -108.6208 228° Southwest 271 312 20,100 -2,000 Descending Salt Lake Center
Mon 04:55:09 PM 44.7328 -108.6969 228° Southwest 270 311 17,900 -2,129 Descending Salt Lake Center
Mon 04:56:11 PM 44.6858 -108.7697 228° Southwest 258 297 15,700 -2,129 Descending Salt Lake Center

Login

Don't have an account? Register now (free) for customized features, flight alerts, and more!